createdAt,value
2022-12-01T00:01:52.713Z,-1.10
2022-12-01T00:06:20.482Z,-1.10
2022-12-01T00:10:28.679Z,-1.10
2022-12-01T00:14:55.147Z,-1.10
2022-12-01T00:18:58.834Z,-1.10
2022-12-01T00:23:01.197Z,-1.10
2022-12-01T00:27:04.263Z,-1.10
2022-12-01T00:31:30.085Z,-1.10
2022-12-01T00:35:59.469Z,-1.00
2022-12-01T00:40:40.012Z,-1.00
2022-12-01T00:44:42.435Z,-1.00
2022-12-01T00:48:44.329Z,-1.10
2022-12-01T00:52:48.364Z,-1.10
2022-12-01T00:56:51.039Z,-1.10
2022-12-01T01:01:00.198Z,-1.10
2022-12-01T01:05:02.320Z,-1.10
2022-12-01T01:09:32.879Z,-1.10
2022-12-01T01:13:35.858Z,-1.10
2022-12-01T01:18:47.360Z,-1.10
2022-12-01T01:22:49.299Z,-1.20
2022-12-01T01:26:51.498Z,-1.20
2022-12-01T01:30:54.509Z,-1.30
2022-12-01T01:34:56.585Z,-1.30
2022-12-01T01:38:58.457Z,-1.40
2022-12-01T01:43:00.326Z,-1.40
2022-12-01T01:47:02.526Z,-1.40
2022-12-01T01:51:05.837Z,-1.40
2022-12-01T01:55:08.267Z,-1.30
2022-12-01T01:59:12.770Z,-1.30
2022-12-01T02:04:05.130Z,-1.40
2022-12-01T02:08:12.532Z,-1.40
2022-12-01T02:12:54.005Z,-1.40
2022-12-01T02:17:16.898Z,-1.40
2022-12-01T02:21:39.016Z,-1.40
2022-12-01T02:26:13.229Z,-1.40
2022-12-01T02:30:45.857Z,-1.40
2022-12-01T02:35:42.179Z,-1.50
2022-12-01T02:40:39.706Z,-1.40
2022-12-01T02:44:45.935Z,-1.40
2022-12-01T02:49:58.496Z,-1.30
2022-12-01T02:54:04.188Z,-1.20
2022-12-01T02:58:22.349Z,-1.20
2022-12-01T03:03:13.283Z,-1.20
2022-12-01T03:07:49.189Z,-1.10
2022-12-01T03:12:19.633Z,-1.20
2022-12-01T03:16:54.177Z,-1.30
2022-12-01T03:21:22.963Z,-1.30
2022-12-01T03:32:16.001Z,-1.30
2022-12-01T03:36:41.960Z,-1.40
2022-12-01T03:40:49.864Z,-1.40
2022-12-01T03:45:26.753Z,-1.40
2022-12-01T03:49:36.218Z,-1.40
2022-12-01T03:53:55.187Z,-1.40
2022-12-01T03:58:35.792Z,-1.30
2022-12-01T04:03:42.331Z,-1.30
2022-12-01T04:07:48.539Z,-1.40
2022-12-01T04:12:11.216Z,-1.40
2022-12-01T04:16:14.309Z,-1.30
2022-12-01T04:20:17.932Z,-1.20
2022-12-01T04:24:20.041Z,-1.20
2022-12-01T04:28:27.573Z,-1.20
2022-12-01T04:32:29.731Z,-1.20
2022-12-01T04:37:10.225Z,-1.20
2022-12-01T04:41:40.205Z,-1.30
2022-12-01T04:45:42.181Z,-1.30
2022-12-01T04:49:45.293Z,-1.30
2022-12-01T04:53:47.169Z,-1.30
2022-12-01T04:58:15.057Z,-1.30
2022-12-01T05:02:24.376Z,-1.30
2022-12-01T05:07:18.391Z,-1.30
2022-12-01T05:11:46.137Z,-1.40
2022-12-01T05:15:52.204Z,-1.40
2022-12-01T05:20:12.822Z,-1.40
2022-12-01T05:24:16.090Z,-1.40
2022-12-01T05:28:18.453Z,-1.40
2022-12-01T05:32:20.332Z,-1.40
2022-12-01T05:36:22.498Z,-1.40
2022-12-01T05:40:24.430Z,-1.30
2022-12-01T05:44:26.340Z,-1.30
2022-12-01T05:48:28.235Z,-1.30
2022-12-01T05:52:58.165Z,-1.40
2022-12-01T05:57:07.168Z,-1.40
2022-12-01T06:01:11.179Z,-1.50
2022-12-01T06:05:17.282Z,-1.50
2022-12-01T06:09:21.572Z,-1.60
2022-12-01T06:13:23.447Z,-1.60
2022-12-01T06:18:20.177Z,-1.70
2022-12-01T06:22:23.281Z,-1.80
2022-12-01T06:26:32.484Z,-1.90
2022-12-01T06:30:34.536Z,-2.00
2022-12-01T06:34:36.394Z,-2.10
2022-12-01T06:39:10.709Z,-2.10
2022-12-01T06:43:16.330Z,-2.20
2022-12-01T06:47:18.430Z,-2.30
2022-12-01T06:51:24.571Z,-2.20
2022-12-01T06:55:30.228Z,-2.20
2022-12-01T06:59:32.394Z,-2.20
2022-12-01T07:03:59.684Z,-2.30
2022-12-01T07:08:03.509Z,-2.20
2022-12-01T07:12:08.724Z,-2.20
2022-12-01T07:16:38.398Z,-2.20
2022-12-01T07:20:40.322Z,-2.10
2022-12-01T07:25:34.794Z,-2.10
2022-12-01T07:29:36.708Z,-2.10
2022-12-01T07:33:39.395Z,-2.10
2022-12-01T07:37:41.380Z,-2.10
2022-12-01T07:41:43.490Z,-2.00
2022-12-01T07:45:45.650Z,-2.00
2022-12-01T07:49:48.238Z,-2.10
2022-12-01T07:53:53.895Z,-2.10
2022-12-01T07:59:02.320Z,-2.10
2022-12-01T08:03:58.004Z,-2.10
2022-12-01T08:08:02.377Z,-2.10
2022-12-01T08:12:41.892Z,-2.00
2022-12-01T08:16:49.846Z,-1.90
2022-12-01T08:20:58.433Z,-1.90
2022-12-01T08:25:05.854Z,-1.80
2022-12-01T08:29:07.693Z,-1.60
2022-12-01T08:34:12.398Z,-1.60
2022-12-01T08:38:18.415Z,-1.60
2022-12-01T08:42:21.247Z,-1.70
2022-12-01T08:46:23.194Z,-1.60
2022-12-01T08:50:42.745Z,-1.50
2022-12-01T09:00:45.474Z,-1.20
2022-12-01T09:04:47.826Z,-1.20
2022-12-01T09:08:55.413Z,-1.10
2022-12-01T09:12:57.696Z,-1.00
2022-12-01T09:17:26.300Z,-0.80
2022-12-01T09:21:43.419Z,-0.80
2022-12-01T09:25:45.632Z,-0.90
2022-12-01T09:29:47.802Z,-0.90
2022-12-01T09:34:02.245Z,-0.80
2022-12-01T09:38:04.740Z,-0.80
2022-12-01T09:42:18.710Z,-1.00
2022-12-01T09:46:44.746Z,-1.10
2022-12-01T09:50:50.275Z,-1.30
2022-12-01T09:54:55.600Z,-1.40
2022-12-01T09:59:24.891Z,-1.40
2022-12-01T10:03:55.320Z,-1.30
2022-12-01T10:08:27.150Z,-1.10
2022-12-01T10:12:44.259Z,-0.90
2022-12-01T10:17:04.068Z,-0.70
2022-12-01T10:21:27.816Z,-0.70
2022-12-01T10:25:57.268Z,-0.60
2022-12-01T10:30:20.285Z,-0.80
2022-12-01T10:34:33.786Z,-0.80
2022-12-01T10:44:12.961Z,-0.70
2022-12-01T10:48:22.372Z,-0.60
2022-12-01T10:52:41.015Z,-0.60
2022-12-01T10:57:00.277Z,-0.50
2022-12-01T11:01:15.757Z,-0.50
2022-12-01T11:05:34.191Z,-0.30
2022-12-01T11:09:40.970Z,-0.30
2022-12-01T11:13:44.068Z,-0.20
2022-12-01T11:17:46.204Z,-0.20
2022-12-01T11:21:53.311Z,-0.10
2022-12-01T11:26:34.720Z,-0.10
2022-12-01T11:31:06.322Z,-0.20
2022-12-01T11:35:20.991Z,-0.20
2022-12-01T11:40:18.873Z,-0.40
2022-12-01T11:48:58.396Z,-0.30
2022-12-01T11:53:00.879Z,-0.20
2022-12-01T11:57:32.574Z,0.00
2022-12-01T12:02:14.971Z,0.00
2022-12-01T12:06:39.849Z,0.10
2022-12-01T12:11:21.521Z,0.00
2022-12-01T12:20:30.991Z,0.00
2022-12-01T12:25:34.832Z,0.00
2022-12-01T12:29:46.246Z,-0.10
2022-12-01T12:34:29.198Z,0.00
2022-12-01T12:38:48.405Z,0.00
2022-12-01T12:43:12.414Z,-0.10
2022-12-01T12:48:08.056Z,-0.10
2022-12-01T12:52:31.252Z,-0.20
2022-12-01T12:56:35.614Z,-0.20
2022-12-01T13:00:49.737Z,-0.20
2022-12-01T13:05:05.243Z,-0.20
2022-12-01T13:09:18.139Z,-0.10
2022-12-01T13:14:19.857Z,-0.10
2022-12-01T13:18:22.793Z,-0.20
2022-12-01T13:22:32.209Z,-0.10
2022-12-01T13:26:37.889Z,-0.10
2022-12-01T13:30:41.175Z,-0.20
2022-12-01T13:34:47.994Z,-0.20
2022-12-01T13:39:36.257Z,-0.30
2022-12-01T13:44:07.322Z,-0.40
2022-12-01T13:48:37.186Z,-0.40
2022-12-01T13:53:06.711Z,-0.40
2022-12-01T13:57:25.614Z,-0.50
2022-12-01T14:01:30.338Z,-0.50
2022-12-01T14:05:57.171Z,-0.50
2022-12-01T14:10:32.249Z,-0.50
2022-12-01T14:15:03.323Z,-0.60
2022-12-01T14:19:29.249Z,-0.70
2022-12-01T14:24:01.857Z,-0.80
2022-12-01T14:28:04.665Z,-0.80
2022-12-01T14:32:09.855Z,-0.80
2022-12-01T14:42:09.082Z,-0.90
2022-12-01T14:46:23.124Z,-1.00
2022-12-01T14:50:53.668Z,-0.90
2022-12-01T14:54:58.660Z,-0.90
2022-12-01T15:00:04.866Z,-1.00
2022-12-01T15:04:32.989Z,-1.10
2022-12-01T15:08:43.449Z,-1.10
2022-12-01T15:12:49.554Z,-1.20
2022-12-01T15:16:53.064Z,-1.10
2022-12-01T15:21:27.297Z,-1.20
2022-12-01T15:25:37.559Z,-1.20
2022-12-01T15:30:05.511Z,-1.20
2022-12-01T15:34:37.198Z,-1.30
2022-12-01T15:38:42.444Z,-1.40
2022-12-01T15:43:04.069Z,-1.40
2022-12-01T15:47:55.980Z,-1.40
2022-12-01T15:52:09.436Z,-1.40
2022-12-01T15:56:12.209Z,-1.60
2022-12-01T16:00:20.377Z,-1.60
2022-12-01T16:04:28.237Z,-1.70
2022-12-01T16:08:32.413Z,-1.70
2022-12-01T16:12:36.856Z,-1.70
2022-12-01T16:16:55.939Z,-1.70
2022-12-01T16:22:03.073Z,-1.80
2022-12-01T16:26:54.644Z,-1.70
2022-12-01T16:30:57.204Z,-1.60
2022-12-01T16:34:59.784Z,-1.50
2022-12-01T16:39:07.315Z,-1.40
2022-12-01T16:43:30.041Z,-1.20
2022-12-01T16:47:32.845Z,-1.10
2022-12-01T16:51:54.759Z,-1.10
2022-12-01T16:56:00.506Z,-1.00
2022-12-01T17:00:20.633Z,-1.00
2022-12-01T17:04:22.652Z,-1.00
2022-12-01T17:08:25.262Z,-1.20
2022-12-01T17:12:27.249Z,-1.20
2022-12-01T17:16:29.259Z,-1.20
2022-12-01T17:20:31.267Z,-1.30
2022-12-01T17:24:33.309Z,-1.20
2022-12-01T17:28:35.605Z,-1.20
2022-12-01T17:33:57.724Z,-1.40
2022-12-01T17:38:05.702Z,-1.40
2022-12-01T17:42:26.402Z,-1.50
2022-12-01T17:46:57.980Z,-1.50
2022-12-01T17:51:02.139Z,-1.60
2022-12-01T17:55:30.835Z,-1.60
2022-12-01T17:59:39.594Z,-1.60
2022-12-01T18:04:09.998Z,-1.60
2022-12-01T18:09:10.535Z,-1.60
2022-12-01T18:19:59.404Z,-1.60
2022-12-01T18:29:01.906Z,-1.70
2022-12-01T18:33:48.221Z,-1.70
2022-12-01T20:20:27.812Z,-2.70
2022-12-01T20:24:36.034Z,-2.70
2022-12-01T20:28:38.972Z,-2.80
2022-12-01T20:32:41.028Z,-2.80
2022-12-01T20:36:46.785Z,-2.80
2022-12-01T20:40:52.364Z,-2.80
2022-12-01T20:44:54.393Z,-2.70
2022-12-01T20:48:59.210Z,-2.70
2022-12-01T20:53:24.156Z,-2.70
2022-12-01T20:57:28.608Z,-2.80
2022-12-01T21:01:32.942Z,-2.80
2022-12-01T21:05:38.276Z,-2.90
2022-12-01T21:09:40.471Z,-2.90
2022-12-01T21:13:42.787Z,-2.90
2022-12-01T21:18:12.603Z,-2.90
2022-12-01T21:22:14.779Z,-3.00
2022-12-01T21:26:19.212Z,-3.00
2022-12-01T21:30:31.750Z,-2.90
2022-12-01T21:34:35.690Z,-2.90
2022-12-01T21:38:37.597Z,-3.00
2022-12-01T21:42:39.492Z,-3.00
2022-12-01T21:46:46.652Z,-3.10
2022-12-01T21:51:36.242Z,-3.00
2022-12-01T21:55:44.339Z,-3.00
2022-12-01T21:59:46.326Z,-3.00
2022-12-01T22:04:31.586Z,-3.00
2022-12-01T22:08:40.433Z,-3.00
2022-12-01T22:13:42.875Z,-3.00
2022-12-01T22:17:44.784Z,-3.00
2022-12-01T22:22:25.292Z,-3.00
2022-12-01T22:26:32.926Z,-3.00
2022-12-01T22:30:52.593Z,-3.00
2022-12-01T22:35:54.900Z,-3.10
2022-12-01T22:39:57.519Z,-3.10
2022-12-01T22:44:01.538Z,-3.00
2022-12-01T22:49:06.053Z,-3.10
2022-12-01T22:53:18.144Z,-3.00
2022-12-01T22:57:43.147Z,-3.10
2022-12-01T23:01:59.512Z,-3.10
2022-12-01T23:06:45.558Z,-3.10
2022-12-01T23:10:47.757Z,-3.10
2022-12-01T23:14:52.860Z,-3.10
2022-12-01T23:18:55.591Z,-3.10
2022-12-01T23:23:00.660Z,-3.10
2022-12-01T23:27:02.711Z,-3.10
2022-12-01T23:31:06.145Z,-3.10
2022-12-01T23:35:38.091Z,-3.00
2022-12-01T23:39:40.041Z,-3.10
2022-12-01T23:43:44.365Z,-3.00
2022-12-01T23:47:46.565Z,-3.10
2022-12-01T23:53:00.650Z,-3.00
2022-12-01T23:57:54.636Z,-3.00
